createdAt,value
2022-08-09T00:02:30.060Z,3.30
2022-08-09T00:07:44.885Z,3.20
2022-08-09T00:12:47.263Z,2.90
2022-08-09T00:18:05.674Z,3.30
2022-08-09T00:23:54.648Z,3.10
2022-08-09T00:28:35.616Z,3.17
2022-08-09T00:33:51.084Z,2.80
2022-08-09T00:38:54.147Z,3.20
2022-08-09T00:44:15.599Z,2.93
2022-08-09T00:49:17.955Z,3.17
2022-08-09T00:54:23.179Z,3.03
2022-08-09T00:59:46.107Z,3.13
2022-08-09T01:05:51.644Z,3.33
2022-08-09T01:11:08.383Z,3.37
2022-08-09T01:16:12.947Z,3.10
2022-08-09T01:21:45.043Z,3.30
2022-08-09T01:27:12.704Z,3.40
2022-08-09T01:32:31.324Z,3.30
2022-08-09T01:37:43.197Z,3.00
2022-08-09T01:43:01.362Z,3.40
2022-08-09T01:48:06.101Z,3.30
2022-08-09T01:53:19.549Z,3.00
2022-08-09T01:58:24.012Z,3.03
2022-08-09T02:03:29.997Z,3.20
2022-08-09T02:08:41.161Z,2.63
2022-08-09T02:14:06.947Z,3.27
2022-08-09T02:19:10.551Z,2.90
2022-08-09T02:24:26.360Z,3.07
2022-08-09T02:29:34.197Z,3.23
2022-08-09T02:34:41.429Z,3.57
2022-08-09T02:40:03.159Z,3.40
2022-08-09T02:45:11.838Z,3.67
2022-08-09T02:50:26.925Z,3.40
2022-08-09T02:55:46.221Z,3.23
2022-08-09T03:00:58.608Z,3.93
2022-08-09T03:06:02.703Z,4.10
2022-08-09T03:11:06.555Z,4.77
2022-08-09T03:16:14.114Z,4.13
2022-08-09T03:21:17.780Z,4.10
2022-08-09T03:26:32.053Z,4.07
2022-08-09T03:31:34.805Z,3.93
2022-08-09T03:36:58.331Z,4.80
2022-08-09T03:42:06.801Z,3.70
2022-08-09T03:47:09.043Z,4.00
2022-08-09T03:52:11.724Z,4.40
2022-08-09T03:57:20.236Z,4.17
2022-08-09T04:02:26.512Z,3.73
2022-08-09T04:07:47.620Z,3.57
2022-08-09T04:12:53.820Z,3.60
2022-08-09T04:17:57.676Z,4.20
2022-08-09T04:23:00.342Z,3.73
2022-08-09T04:28:04.127Z,5.97
2022-08-09T04:33:06.480Z,3.90
2022-08-09T04:38:10.065Z,3.57
2022-08-09T04:43:12.572Z,3.80
2022-08-09T04:48:15.752Z,3.50
2022-08-09T04:53:18.199Z,3.63
2022-08-09T04:58:20.266Z,4.03
2022-08-09T05:03:40.208Z,3.50
2022-08-09T05:08:47.792Z,3.47
2022-08-09T05:13:50.402Z,3.93
2022-08-09T05:18:59.220Z,3.43
2022-08-09T05:24:04.032Z,3.33
2022-08-09T05:29:07.211Z,3.10
2022-08-09T05:34:19.721Z,3.13
2022-08-09T05:39:28.862Z,3.40
2022-08-09T05:44:34.528Z,3.03
2022-08-09T05:50:30.921Z,2.97
2022-08-09T05:55:02.783Z,2.90
2022-08-09T06:00:09.819Z,2.77
2022-08-09T06:05:16.488Z,3.13
2022-08-09T06:10:18.499Z,3.03
2022-08-09T06:15:21.351Z,3.00
2022-08-09T06:20:23.458Z,2.90
2022-08-09T06:25:26.511Z,2.77
2022-08-09T06:30:29.006Z,2.50
2022-08-09T06:35:55.938Z,2.63
2022-08-09T06:40:55.127Z,2.60
2022-08-09T06:46:06.432Z,2.70
2022-08-09T06:51:12.654Z,2.50
2022-08-09T06:56:17.097Z,2.70
2022-08-09T07:01:24.047Z,3.00
2022-08-09T07:06:30.043Z,2.33
2022-08-09T07:11:34.335Z,3.13
2022-08-09T07:16:53.496Z,2.20
2022-08-09T07:21:59.801Z,2.60
2022-08-09T07:27:02.533Z,2.53
2022-08-09T07:32:05.088Z,2.70
2022-08-09T07:37:15.548Z,2.80
2022-08-09T07:42:18.370Z,2.77
2022-08-09T07:47:21.189Z,2.70
2022-08-09T07:52:24.137Z,2.70
2022-08-09T07:57:35.938Z,2.37
2022-08-09T08:02:42.424Z,2.40
2022-08-09T08:08:44.414Z,2.30
2022-08-09T08:13:10.411Z,2.43
2022-08-09T08:18:14.353Z,2.20
2022-08-09T08:23:18.607Z,2.50
2022-08-09T08:28:32.135Z,2.43
2022-08-09T08:33:52.923Z,2.20
2022-08-09T08:38:56.448Z,2.40
2022-08-09T08:44:02.567Z,2.33
2022-08-09T08:49:12.641Z,2.53
2022-08-09T08:54:20.199Z,2.20
2022-08-09T08:59:22.933Z,2.20
2022-08-09T09:04:48.039Z,2.43
2022-08-09T09:10:01.518Z,2.50
2022-08-09T09:15:06.774Z,2.70
2022-08-09T09:20:10.930Z,2.13
2022-08-09T09:26:03.880Z,2.50
2022-08-09T09:30:57.894Z,2.20
2022-08-09T09:36:19.990Z,2.20
2022-08-09T09:41:27.873Z,2.13
2022-08-09T09:46:41.931Z,2.13
2022-08-09T09:51:47.804Z,2.40
2022-08-09T09:58:02.983Z,2.00
2022-08-09T10:02:18.646Z,2.00
2022-08-09T10:07:24.189Z,1.90
2022-08-09T10:12:43.628Z,1.80
2022-08-09T10:17:56.555Z,2.00
2022-08-09T10:23:12.429Z,1.70
2022-08-09T10:28:15.709Z,1.80
2022-08-09T10:34:04.278Z,1.60
2022-08-09T10:38:56.852Z,2.47
2022-08-09T10:44:02.521Z,2.13
2022-08-09T10:49:50.978Z,1.73
2022-08-09T10:54:54.117Z,1.40
2022-08-09T10:59:58.469Z,1.90
2022-08-09T11:05:25.515Z,1.70
2022-08-09T11:10:41.026Z,2.00
2022-08-09T11:16:15.421Z,2.00
2022-08-09T11:21:56.913Z,1.60
2022-08-09T11:28:04.334Z,1.80
2022-08-09T11:33:19.106Z,1.80
2022-08-09T11:38:28.554Z,1.53
2022-08-09T11:43:35.147Z,1.50
2022-08-09T11:48:53.936Z,1.77
2022-08-09T11:54:28.965Z,1.83
2022-08-09T11:59:37.839Z,1.70
2022-08-09T12:04:40.446Z,1.60
2022-08-09T12:09:50.955Z,1.50
2022-08-09T12:15:04.352Z,1.80
2022-08-09T12:20:21.721Z,1.70
2022-08-09T12:25:37.680Z,1.90
2022-08-09T12:30:40.326Z,1.80
2022-08-09T12:35:42.942Z,2.07
2022-08-09T12:40:46.537Z,1.60
2022-08-09T12:45:59.661Z,1.70
2022-08-09T12:51:03.705Z,2.07
2022-08-09T12:56:39.435Z,1.60
2022-08-09T13:01:39.185Z,1.80
2022-08-09T13:06:49.455Z,1.40
2022-08-09T13:12:01.633Z,1.30
2022-08-09T13:17:08.429Z,1.60
2022-08-09T13:22:35.264Z,1.53
2022-08-09T13:27:39.913Z,2.07
2022-08-09T13:32:54.325Z,1.37
2022-08-09T13:37:56.587Z,1.60
2022-08-09T13:42:59.248Z,1.50
2022-08-09T13:48:01.532Z,1.47
2022-08-09T13:53:03.924Z,1.60
2022-08-09T13:58:11.634Z,1.53
2022-08-09T14:04:02.336Z,1.47
2022-08-09T14:08:36.166Z,1.80
2022-08-09T14:14:24.887Z,1.80
2022-08-09T14:19:01.136Z,1.50
2022-08-09T14:24:10.338Z,1.60
2022-08-09T14:29:25.458Z,1.87
2022-08-09T14:34:44.328Z,1.60
2022-08-09T14:39:48.672Z,1.77
2022-08-09T14:44:59.542Z,1.93
2022-08-09T14:50:02.876Z,1.70
2022-08-09T14:55:06.878Z,1.30
2022-08-09T15:00:10.950Z,1.50
2022-08-09T15:05:15.236Z,1.30
2022-08-09T15:10:18.191Z,1.30
2022-08-09T15:15:20.391Z,1.57
2022-08-09T15:22:01.393Z,1.40
2022-08-09T15:25:46.136Z,1.30
2022-08-09T15:31:01.058Z,1.33
2022-08-09T15:36:06.082Z,1.40
2022-08-09T15:41:09.339Z,1.27
2022-08-09T15:46:32.306Z,1.30
2022-08-09T15:52:03.772Z,1.27
2022-08-09T15:56:56.675Z,1.20
2022-08-09T16:01:58.919Z,1.60
2022-08-09T16:07:02.075Z,1.30
2022-08-09T16:12:04.617Z,1.33
2022-08-09T16:17:06.849Z,1.20
2022-08-09T16:22:14.750Z,1.43
2022-08-09T16:27:18.221Z,1.80
2022-08-09T16:32:34.384Z,1.57
2022-08-09T16:37:55.626Z,1.53
2022-08-09T16:43:00.037Z,1.27
2022-08-09T16:48:38.781Z,1.40
2022-08-09T16:53:33.828Z,1.30
2022-08-09T16:58:37.077Z,1.50
2022-08-09T17:03:41.844Z,1.33
2022-08-09T17:08:58.790Z,1.10
2022-08-09T17:14:07.438Z,1.33
2022-08-09T17:19:10.485Z,1.40
2022-08-09T17:24:20.911Z,1.30
2022-08-09T17:29:31.557Z,1.20
2022-08-09T17:35:01.926Z,1.37
2022-08-09T17:40:01.757Z,1.30
2022-08-09T17:45:06.502Z,1.50
2022-08-09T17:50:16.889Z,1.73
2022-08-09T17:55:20.183Z,1.50
2022-08-09T18:00:35.212Z,1.40
2022-08-09T18:05:44.880Z,1.70
2022-08-09T18:11:01.530Z,1.53
2022-08-09T18:16:08.674Z,1.80
2022-08-09T18:21:19.279Z,1.47
2022-08-09T18:26:26.366Z,1.60
2022-08-09T18:31:51.390Z,1.70
2022-08-09T18:36:53.226Z,1.60
2022-08-09T18:41:56.004Z,1.60
2022-08-09T18:47:08.093Z,1.67
2022-08-09T18:52:18.613Z,1.67
2022-08-09T18:57:43.057Z,1.60
2022-08-09T19:02:46.689Z,1.60
2022-08-09T19:08:03.954Z,1.77
2022-08-09T19:13:23.173Z,1.70
2022-08-09T19:18:40.943Z,2.07
2022-08-09T19:24:37.831Z,2.50
2022-08-09T19:29:18.304Z,2.20
2022-08-09T19:34:24.643Z,1.77
2022-08-09T19:40:03.253Z,2.20
2022-08-09T19:44:51.490Z,1.90
2022-08-09T19:50:09.150Z,1.77
2022-08-09T19:55:16.570Z,2.60
2022-08-09T20:00:21.753Z,1.70
2022-08-09T20:05:24.923Z,2.30
2022-08-09T20:10:36.241Z,1.93
2022-08-09T20:16:36.817Z,1.80
2022-08-09T20:21:01.909Z,2.20
2022-08-09T20:26:04.016Z,1.93
2022-08-09T20:31:09.244Z,1.80
2022-08-09T20:36:11.417Z,2.00
2022-08-09T20:41:13.353Z,2.10
2022-08-09T20:46:33.864Z,2.00
2022-08-09T20:51:41.375Z,1.90
2022-08-09T20:56:47.030Z,2.17
2022-08-09T21:01:51.277Z,2.10
2022-08-09T21:06:55.385Z,2.30
2022-08-09T21:18:22.559Z,2.00
2022-08-09T21:22:38.459Z,1.80
2022-08-09T21:27:51.599Z,1.73
2022-08-09T21:33:02.303Z,1.80
2022-08-09T21:38:09.196Z,2.00
2022-08-09T21:43:11.539Z,1.90
2022-08-09T21:48:23.522Z,2.40
2022-08-09T21:53:40.106Z,2.00
2022-08-09T21:58:43.370Z,1.90
2022-08-09T22:03:59.274Z,1.90
2022-08-09T22:09:02.044Z,2.07
2022-08-09T22:14:04.294Z,1.80
2022-08-09T22:19:57.826Z,1.83
2022-08-09T22:24:34.669Z,1.70
2022-08-09T22:29:48.456Z,1.90
2022-08-09T22:35:02.445Z,1.90
2022-08-09T22:40:09.848Z,1.80
2022-08-09T22:48:14.261Z,1.70
2022-08-09T22:50:33.985Z,2.10
2022-08-09T22:56:06.204Z,1.80
2022-08-09T23:00:58.600Z,1.93
2022-08-09T23:06:00.868Z,2.10
2022-08-09T23:11:03.182Z,1.70
2022-08-09T23:16:05.156Z,2.57
2022-08-09T23:21:08.356Z,1.77
2022-08-09T23:26:10.869Z,2.00
2022-08-09T23:31:12.736Z,1.83
2022-08-09T23:36:14.635Z,1.80
2022-08-09T23:41:28.988Z,1.87
2022-08-09T23:46:32.201Z,1.87
2022-08-09T23:51:34.519Z,2.20
2022-08-09T23:56:53.646Z,1.87
